sensor_id;sensor_type;location;lat;lon;timestamp;pressure;altitude;pressure_sealevel;temperature;humidity
40982;BME280;26708;50.304;19.028;2023-04-07T00:02:01;98267.81;;;3.45;64.09
40982;BME280;26708;50.304;19.028;2023-04-07T00:04:05;98278.22;;;3.48;64.25
40982;BME280;26708;50.304;19.028;2023-04-07T00:06:10;98179.66;;;2.92;64.41
40982;BME280;26708;50.304;19.028;2023-04-07T00:08:18;98318.47;;;3.77;64.20
40982;BME280;26708;50.304;19.028;2023-04-07T00:10:26;98322.75;;;3.77;64.26
40982;BME280;26708;50.304;19.028;2023-04-07T00:12:31;98169.22;;;2.87;64.37
40982;BME280;26708;50.304;19.028;2023-04-07T00:14:38;98315.00;;;3.77;64.27
40982;BME280;26708;50.304;19.028;2023-04-07T00:16:42;98312.41;;;3.75;64.33
40982;BME280;26708;50.304;19.028;2023-04-07T00:18:50;98313.31;;;3.77;64.46
40982;BME280;26708;50.304;19.028;2023-04-07T00:20:56;98312.50;;;3.80;64.39
40982;BME280;26708;50.304;19.028;2023-04-07T00:23:00;98305.53;;;3.77;64.18
40982;BME280;26708;50.304;19.028;2023-04-07T00:25:08;98245.44;;;3.47;64.28
40982;BME280;26708;50.304;19.028;2023-04-07T00:27:14;98301.22;;;3.78;64.33
40982;BME280;26708;50.304;19.028;2023-04-07T00:29:18;98251.53;;;3.51;64.18
40982;BME280;26708;50.304;19.028;2023-04-07T00:31:23;98296.88;;;3.77;64.32
40982;BME280;26708;50.304;19.028;2023-04-07T00:33:29;98290.88;;;3.76;64.29
40982;BME280;26708;50.304;19.028;2023-04-07T00:35:36;98292.53;;;3.74;64.40
40982;BME280;26708;50.304;19.028;2023-04-07T00:37:40;98286.38;;;3.68;64.24
40982;BME280;26708;50.304;19.028;2023-04-07T00:39:46;98221.91;;;3.34;64.36
40982;BME280;26708;50.304;19.028;2023-04-07T00:41:54;98145.03;;;2.82;64.46
40982;BME280;26708;50.304;19.028;2023-04-07T00:43:58;98296.00;;;3.75;64.60
40982;BME280;26708;50.304;19.028;2023-04-07T00:46:04;98113.72;;;2.67;64.41
40982;BME280;26708;50.304;19.028;2023-04-07T00:48:09;98157.47;;;3.01;64.63
40982;BME280;26708;50.304;19.028;2023-04-07T00:50:14;98227.25;;;3.43;64.50
40982;BME280;26708;50.304;19.028;2023-04-07T00:52:19;98285.69;;;3.76;64.61
40982;BME280;26708;50.304;19.028;2023-04-07T00:54:29;98219.44;;;3.41;64.47
40982;BME280;26708;50.304;19.028;2023-04-07T00:56:34;98235.19;;;3.52;64.51
40982;BME280;26708;50.304;19.028;2023-04-07T00:58:42;98193.47;;;3.34;64.83
40982;BME280;26708;50.304;19.028;2023-04-07T01:00:54;98281.38;;;3.77;64.64
40982;BME280;26708;50.304;19.028;2023-04-07T01:03:11;98178.63;;;3.25;64.75
40982;BME280;26708;50.304;19.028;2023-04-07T01:05:27;98272.75;;;3.78;64.77
40982;BME280;26708;50.304;19.028;2023-04-07T01:07:47;98261.44;;;3.71;64.72
40982;BME280;26708;50.304;19.028;2023-04-07T01:10:03;98218.78;;;3.51;64.66
40982;BME280;26708;50.304;19.028;2023-04-07T01:12:30;98268.47;;;3.78;64.54
40982;BME280;26708;50.304;19.028;2023-04-07T01:14:49;98264.16;;;3.79;64.57
40982;BME280;26708;50.304;19.028;2023-04-07T01:17:26;98212.75;;;3.51;64.69
40982;BME280;26708;50.304;19.028;2023-04-07T01:19:56;98167.31;;;3.20;64.45
40982;BME280;26708;50.304;19.028;2023-04-07T01:22:11;98260.63;;;3.74;64.68
40982;BME280;26708;50.304;19.028;2023-04-07T01:24:36;98258.88;;;3.74;64.59
40982;BME280;26708;50.304;19.028;2023-04-07T01:26:59;98201.31;;;3.40;64.69
40982;BME280;26708;50.304;19.028;2023-04-07T01:29:33;98233.47;;;3.52;65.00
40982;BME280;26708;50.304;19.028;2023-04-07T01:31:45;98235.19;;;3.52;65.12
40982;BME280;26708;50.304;19.028;2023-04-07T01:33:54;98263.13;;;3.69;65.10
40982;BME280;26708;50.304;19.028;2023-04-07T01:36:06;98269.94;;;3.66;65.14
40982;BME280;26708;50.304;19.028;2023-04-07T01:38:14;98201.88;;;3.25;65.22
40982;BME280;26708;50.304;19.028;2023-04-07T01:40:21;98167.84;;;3.04;65.35
40982;BME280;26708;50.304;19.028;2023-04-07T01:42:28;98262.94;;;3.60;65.32
40982;BME280;26708;50.304;19.028;2023-04-07T01:44:38;98268.13;;;3.60;65.61
40982;BME280;26708;50.304;19.028;2023-04-07T01:46:44;98249.88;;;3.54;65.58
40982;BME280;26708;50.304;19.028;2023-04-07T01:48:52;98255.22;;;3.63;65.41
40982;BME280;26708;50.304;19.028;2023-04-07T01:50:59;98258.75;;;3.67;65.68
40982;BME280;26708;50.304;19.028;2023-04-07T01:53:04;98246.66;;;3.66;65.60
40982;BME280;26708;50.304;19.028;2023-04-07T01:55:10;98209.16;;;3.43;65.50
40982;BME280;26708;50.304;19.028;2023-04-07T01:57:25;98203.03;;;3.39;65.45
40982;BME280;26708;50.304;19.028;2023-04-07T01:59:38;98250.19;;;3.69;65.68
40982;BME280;26708;50.304;19.028;2023-04-07T02:01:45;98254.44;;;3.67;65.54
40982;BME280;26708;50.304;19.028;2023-04-07T02:03:55;98153.44;;;3.15;65.61
40982;BME280;26708;50.304;19.028;2023-04-07T02:06:11;98238.91;;;3.66;65.55
40982;BME280;26708;50.304;19.028;2023-04-07T02:08:20;98176.97;;;3.29;65.56
40982;BME280;26708;50.304;19.028;2023-04-07T02:10:34;98255.22;;;3.63;65.86
40982;BME280;26708;50.304;19.028;2023-04-07T02:12:44;98253.53;;;3.64;65.78
40982;BME280;26708;50.304;19.028;2023-04-07T02:14:57;98197.63;;;3.27;65.81
40982;BME280;26708;50.304;19.028;2023-04-07T02:17:09;98160.19;;;3.07;65.99
40982;BME280;26708;50.304;19.028;2023-04-07T02:19:18;98227.34;;;3.47;66.05
40982;BME280;26708;50.304;19.028;2023-04-07T02:21:24;98215.06;;;3.37;65.94
40982;BME280;26708;50.304;19.028;2023-04-07T02:23:35;98255.19;;;3.60;65.85
40982;BME280;26708;50.304;19.028;2023-04-07T02:25:40;98252.59;;;3.60;65.98
40982;BME280;26708;50.304;19.028;2023-04-07T02:27:47;98252.59;;;3.60;65.91
40982;BME280;26708;50.304;19.028;2023-04-07T02:29:56;98251.69;;;3.58;66.07
40982;BME280;26708;50.304;19.028;2023-04-07T02:32:01;98262.94;;;3.60;66.13
40982;BME280;26708;50.304;19.028;2023-04-07T02:34:06;98245.78;;;3.64;66.08
40982;BME280;26708;50.304;19.028;2023-04-07T02:36:11;98193.41;;;3.32;66.02
40982;BME280;26708;50.304;19.028;2023-04-07T02:38:16;98217.66;;;3.37;65.88
40982;BME280;26708;50.304;19.028;2023-04-07T02:40:20;98181.97;;;3.20;65.84
40982;BME280;26708;50.304;19.028;2023-04-07T02:42:28;98251.84;;;3.66;65.99
40982;BME280;26708;50.304;19.028;2023-04-07T02:44:33;98227.41;;;3.52;66.07
40982;BME280;26708;50.304;19.028;2023-04-07T02:46:40;98194.31;;;3.34;65.77
40982;BME280;26708;50.304;19.028;2023-04-07T02:48:48;98250.19;;;3.69;65.96
40982;BME280;26708;50.304;19.028;2023-04-07T02:50:52;98242.38;;;3.68;65.95
40982;BME280;26708;50.304;19.028;2023-04-07T02:52:57;98245.78;;;3.65;65.93
40982;BME280;26708;50.304;19.028;2023-04-07T02:55:03;98040.09;;;2.47;65.77
40982;BME280;26708;50.304;19.028;2023-04-07T02:57:09;98238.66;;;3.52;66.03
40982;BME280;26708;50.304;19.028;2023-04-07T02:59:14;98244.00;;;3.61;66.24
40982;BME280;26708;50.304;19.028;2023-04-07T03:01:20;98235.44;;;3.64;66.24
40982;BME280;26708;50.304;19.028;2023-04-07T03:03:27;98233.72;;;3.66;66.10
40982;BME280;26708;50.304;19.028;2023-04-07T03:05:42;98228.56;;;3.66;66.09
40982;BME280;26708;50.304;19.028;2023-04-07T03:07:47;98171.75;;;3.27;66.13
40982;BME280;26708;50.304;19.028;2023-04-07T03:09:52;98221.31;;;3.48;66.14
40982;BME280;26708;50.304;19.028;2023-04-07T03:11:56;98231.81;;;3.57;66.37
40982;BME280;26708;50.304;19.028;2023-04-07T03:14:09;98230.03;;;3.53;66.37
40982;BME280;26708;50.304;19.028;2023-04-07T03:16:19;98149.69;;;3.00;66.56
40982;BME280;26708;50.304;19.028;2023-04-07T03:18:39;98190.69;;;3.26;66.36
40982;BME280;26708;50.304;19.028;2023-04-07T03:20:47;98173.41;;;3.22;66.51
40982;BME280;26708;50.304;19.028;2023-04-07T03:22:53;98242.97;;;3.55;66.54
40982;BME280;26708;50.304;19.028;2023-04-07T03:25:02;98135.91;;;2.99;66.45
40982;BME280;26708;50.304;19.028;2023-04-07T03:27:09;98232.69;;;3.56;66.33
40982;BME280;26708;50.304;19.028;2023-04-07T03:29:18;98230.97;;;3.57;66.53
40982;BME280;26708;50.304;19.028;2023-04-07T03:31:23;98171.75;;;3.27;66.50
40982;BME280;26708;50.304;19.028;2023-04-07T03:33:29;98160.34;;;3.16;66.47
40982;BME280;26708;50.304;19.028;2023-04-07T03:35:37;98183.97;;;3.34;66.35
40982;BME280;26708;50.304;19.028;2023-04-07T03:37:42;98225.81;;;3.58;66.43
40982;BME280;26708;50.304;19.028;2023-04-07T03:39:52;98225.84;;;3.60;66.33
40982;BME280;26708;50.304;19.028;2023-04-07T03:42:02;98217.88;;;3.49;66.20
40982;BME280;26708;50.304;19.028;2023-04-07T03:44:08;98166.53;;;3.24;66.38
40982;BME280;26708;50.304;19.028;2023-04-07T03:46:15;98098.31;;;2.73;66.03
40982;BME280;26708;50.304;19.028;2023-04-07T03:48:27;98231.78;;;3.54;66.44
40982;BME280;26708;50.304;19.028;2023-04-07T03:50:40;98225.72;;;3.54;66.52
40982;BME280;26708;50.304;19.028;2023-04-07T03:52:52;98049.34;;;2.38;66.28
40982;BME280;26708;50.304;19.028;2023-04-07T03:55:04;98226.44;;;3.47;66.51
40982;BME280;26708;50.304;19.028;2023-04-07T03:57:10;98216.84;;;3.41;66.80
40982;BME280;26708;50.304;19.028;2023-04-07T03:59:20;98185.63;;;3.29;66.44
40982;BME280;26708;50.304;19.028;2023-04-07T04:01:31;98227.38;;;3.49;66.40
40982;BME280;26708;50.304;19.028;2023-04-07T04:03:48;98170.81;;;3.24;66.61
40982;BME280;26708;50.304;19.028;2023-04-07T04:06:16;98228.41;;;3.58;66.43
40982;BME280;26708;50.304;19.028;2023-04-07T04:08:21;98232.72;;;3.59;66.65
40982;BME280;26708;50.304;19.028;2023-04-07T04:10:27;98233.69;;;3.64;66.60
40982;BME280;26708;50.304;19.028;2023-04-07T04:12:33;98229.41;;;3.65;66.65
40982;BME280;26708;50.304;19.028;2023-04-07T04:14:43;98161.50;;;3.30;66.54
40982;BME280;26708;50.304;19.028;2023-04-07T04:16:52;98139.75;;;3.21;66.41
40982;BME280;26708;50.304;19.028;2023-04-07T04:19:09;98218.13;;;3.61;66.14
40982;BME280;26708;50.304;19.028;2023-04-07T04:21:16;98205.13;;;3.58;66.02
40982;BME280;26708;50.304;19.028;2023-04-07T04:23:21;98235.50;;;3.70;66.19
40982;BME280;26708;50.304;19.028;2023-04-07T04:25:32;98219.03;;;3.63;66.09
40982;BME280;26708;50.304;19.028;2023-04-07T04:27:42;98129.03;;;3.01;65.93
40982;BME280;26708;50.304;19.028;2023-04-07T04:29:52;98167.56;;;3.32;66.04
40982;BME280;26708;50.304;19.028;2023-04-07T04:32:07;98209.44;;;3.59;66.13
40982;BME280;26708;50.304;19.028;2023-04-07T04:34:11;98134.47;;;3.15;65.97
40982;BME280;26708;50.304;19.028;2023-04-07T04:36:20;98237.38;;;3.75;66.20
40982;BME280;26708;50.304;19.028;2023-04-07T04:38:30;98240.81;;;3.76;65.97
40982;BME280;26708;50.304;19.028;2023-04-07T04:40:44;98236.44;;;3.73;65.90
40982;BME280;26708;50.304;19.028;2023-04-07T04:42:56;98238.09;;;3.70;65.96
40982;BME280;26708;50.304;19.028;2023-04-07T04:45:06;98183.19;;;3.38;65.89
40982;BME280;26708;50.304;19.028;2023-04-07T04:47:15;98221.44;;;3.56;66.17
40982;BME280;26708;50.304;19.028;2023-04-07T04:49:21;98244.97;;;3.68;66.13
40982;BME280;26708;50.304;19.028;2023-04-07T04:51:33;98100.34;;;2.88;66.04
40982;BME280;26708;50.304;19.028;2023-04-07T04:53:46;98230.22;;;3.62;66.19
40982;BME280;26708;50.304;19.028;2023-04-07T04:55:51;98246.78;;;3.72;66.09
40982;BME280;26708;50.304;19.028;2023-04-07T04:58:03;98184.91;;;3.38;66.01
40982;BME280;26708;50.304;19.028;2023-04-07T05:00:20;98210.09;;;3.48;66.18
40982;BME280;26708;50.304;19.028;2023-04-07T05:02:31;98231.16;;;3.67;66.17
40982;BME280;26708;50.304;19.028;2023-04-07T05:04:39;98239.00;;;3.70;65.94
40982;BME280;26708;50.304;19.028;2023-04-07T05:07:00;98256.41;;;3.80;65.86
40982;BME280;26708;50.304;19.028;2023-04-07T05:09:06;98247.66;;;3.72;65.70
40982;BME280;26708;50.304;19.028;2023-04-07T05:11:17;98246.91;;;3.79;65.77
40982;BME280;26708;50.304;19.028;2023-04-07T05:13:26;98242.44;;;3.71;65.67
40982;BME280;26708;50.304;19.028;2023-04-07T05:15:34;98235.50;;;3.68;65.49
40982;BME280;26708;50.304;19.028;2023-04-07T05:17:43;98244.16;;;3.70;65.66
40982;BME280;26708;50.304;19.028;2023-04-07T05:19:54;98247.53;;;3.66;65.81
40982;BME280;26708;50.304;19.028;2023-04-07T05:22:11;98201.09;;;3.28;66.00
40982;BME280;26708;50.304;19.028;2023-04-07T05:24:25;98195.97;;;3.29;66.09
40982;BME280;26708;50.304;19.028;2023-04-07T05:26:34;98199.44;;;3.31;66.16
40982;BME280;26708;50.304;19.028;2023-04-07T05:28:40;98182.09;;;3.26;66.25
40982;BME280;26708;50.304;19.028;2023-04-07T05:30:51;98187.34;;;3.30;66.14
40982;BME280;26708;50.304;19.028;2023-04-07T05:33:01;98242.41;;;3.69;66.17
40982;BME280;26708;50.304;19.028;2023-04-07T05:35:21;98114.22;;;2.93;66.09
40982;BME280;26708;50.304;19.028;2023-04-07T05:37:36;98238.19;;;3.73;66.07
40982;BME280;26708;50.304;19.028;2023-04-07T05:39:41;98237.38;;;3.75;66.08
40982;BME280;26708;50.304;19.028;2023-04-07T05:41:48;98199.84;;;3.54;65.87
40982;BME280;26708;50.304;19.028;2023-04-07T05:43:57;98243.44;;;3.77;65.77
40982;BME280;26708;50.304;19.028;2023-04-07T05:46:02;98248.63;;;3.77;65.86
40982;BME280;26708;50.304;19.028;2023-04-07T05:48:12;98191.09;;;3.44;65.98
40982;BME280;26708;50.304;19.028;2023-04-07T05:50:24;98260.78;;;3.83;65.76
40982;BME280;26708;50.304;19.028;2023-04-07T05:52:30;98260.81;;;3.84;65.79
40982;BME280;26708;50.304;19.028;2023-04-07T05:54:46;98259.97;;;3.85;65.65
40982;BME280;26708;50.304;19.028;2023-04-07T05:56:52;98208.47;;;3.53;65.50
40982;BME280;26708;50.304;19.028;2023-04-07T05:58:58;98264.31;;;3.86;65.36
40982;BME280;26708;50.304;19.028;2023-04-07T06:01:03;98261.75;;;3.89;65.53
40982;BME280;26708;50.304;19.028;2023-04-07T06:03:10;98196.34;;;3.50;65.34
40982;BME280;26708;50.304;19.028;2023-04-07T06:05:29;98258.31;;;3.89;65.31
40982;BME280;26708;50.304;19.028;2023-04-07T06:07:36;98261.75;;;3.89;65.53
40982;BME280;26708;50.304;19.028;2023-04-07T06:09:46;98222.53;;;3.67;65.30
40982;BME280;26708;50.304;19.028;2023-04-07T06:11:51;98236.56;;;3.79;65.09
40982;BME280;26708;50.304;19.028;2023-04-07T06:13:57;98260.09;;;3.91;65.21
40982;BME280;26708;50.304;19.028;2023-04-07T06:16:17;98212.22;;;3.68;65.00
40982;BME280;26708;50.304;19.028;2023-04-07T06:18:22;98197.41;;;3.60;65.17
40982;BME280;26708;50.304;19.028;2023-04-07T06:20:27;98251.38;;;3.86;65.08
40982;BME280;26708;50.304;19.028;2023-04-07T06:22:33;98249.72;;;3.90;65.09
40982;BME280;26708;50.304;19.028;2023-04-07T06:24:37;98243.63;;;3.88;65.14
40982;BME280;26708;50.304;19.028;2023-04-07T06:26:45;98248.84;;;3.91;65.18
40982;BME280;26708;50.304;19.028;2023-04-07T06:28:51;98201.84;;;3.67;65.11
40982;BME280;26708;50.304;19.028;2023-04-07T06:30:59;98207.06;;;3.68;65.10
40982;BME280;26708;50.304;19.028;2023-04-07T06:33:06;98216.69;;;3.75;64.89
40982;BME280;26708;50.304;19.028;2023-04-07T06:35:12;98240.38;;;3.98;65.14
40982;BME280;26708;50.304;19.028;2023-04-07T06:37:17;98171.56;;;3.61;65.06
40982;BME280;26708;50.304;19.028;2023-04-07T06:39:26;98236.97;;;4.01;64.80
40982;BME280;26708;50.304;19.028;2023-04-07T06:41:31;98236.13;;;4.01;64.90
40982;BME280;26708;50.304;19.028;2023-04-07T06:43:39;98232.72;;;4.05;64.97
40982;BME280;26708;50.304;19.028;2023-04-07T06:45:44;98238.78;;;4.05;64.93
40982;BME280;26708;50.304;19.028;2023-04-07T06:47:49;98223.13;;;3.99;64.73
40982;BME280;26708;50.304;19.028;2023-04-07T06:49:54;98228.38;;;4.04;64.88
40982;BME280;26708;50.304;19.028;2023-04-07T06:52:01;98247.50;;;4.10;64.96
40982;BME280;26708;50.304;19.028;2023-04-07T06:54:06;98215.34;;;3.97;64.96
40982;BME280;26708;50.304;19.028;2023-04-07T06:56:15;98258.03;;;4.19;64.58
40982;BME280;26708;50.304;19.028;2023-04-07T06:58:19;98260.59;;;4.19;64.71
40982;BME280;26708;50.304;19.028;2023-04-07T07:00:27;98263.19;;;4.19;64.97
40982;BME280;26708;50.304;19.028;2023-04-07T07:02:32;98189.31;;;3.89;64.82
40982;BME280;26708;50.304;19.028;2023-04-07T07:04:46;98254.78;;;4.31;64.92
40982;BME280;26708;50.304;19.028;2023-04-07T07:06:58;98164.03;;;3.75;64.86
40982;BME280;26708;50.304;19.028;2023-04-07T07:09:03;97974.44;;;2.78;64.46
40982;BME280;26708;50.304;19.028;2023-04-07T07:11:08;98260.13;;;4.41;64.59
40982;BME280;26708;50.304;19.028;2023-04-07T07:13:13;98261.91;;;4.45;64.62
40982;BME280;26708;50.304;19.028;2023-04-07T07:15:18;98254.16;;;4.47;64.14
40982;BME280;26708;50.304;19.028;2023-04-07T07:17:26;98190.56;;;4.10;64.07
40982;BME280;26708;50.304;19.028;2023-04-07T07:19:31;98251.56;;;4.47;64.21
40982;BME280;26708;50.304;19.028;2023-04-07T07:21:36;98231.50;;;4.34;64.17
40982;BME280;26708;50.304;19.028;2023-04-07T07:23:41;98236.75;;;4.38;63.84
40982;BME280;26708;50.304;19.028;2023-04-07T07:25:49;98267.19;;;4.51;64.20
40982;BME280;26708;50.304;19.028;2023-04-07T07:27:54;98207.94;;;4.19;63.99
40982;BME280;26708;50.304;19.028;2023-04-07T07:29:59;98161.75;;;3.91;64.08
40982;BME280;26708;50.304;19.028;2023-04-07T07:32:09;98133.00;;;3.75;64.05
40982;BME280;26708;50.304;19.028;2023-04-07T07:34:17;98236.56;;;4.28;63.85
40982;BME280;26708;50.304;19.028;2023-04-07T07:36:24;98063.13;;;3.24;64.11
40982;BME280;26708;50.304;19.028;2023-04-07T07:38:30;98243.28;;;4.17;64.23
40982;BME280;26708;50.304;19.028;2023-04-07T07:40:35;98232.97;;;4.18;64.10
40982;BME280;26708;50.304;19.028;2023-04-07T07:42:40;98280.84;;;4.43;64.12
40982;BME280;26708;50.304;19.028;2023-04-07T07:44:46;98282.59;;;4.44;64.57
40982;BME280;26708;50.304;19.028;2023-04-07T07:46:53;98242.66;;;4.30;64.45
40982;BME280;26708;50.304;19.028;2023-04-07T07:49:00;98277.47;;;4.48;64.33
40982;BME280;26708;50.304;19.028;2023-04-07T07:51:09;98285.44;;;4.57;64.43
40982;BME280;26708;50.304;19.028;2023-04-07T07:53:14;98278.41;;;4.52;64.39
40982;BME280;26708;50.304;19.028;2023-04-07T07:55:19;98164.34;;;3.91;64.23
40982;BME280;26708;50.304;19.028;2023-04-07T07:57:24;98199.22;;;4.12;63.71
40982;BME280;26708;50.304;19.028;2023-04-07T07:59:34;98278.56;;;4.59;63.60
40982;BME280;26708;50.304;19.028;2023-04-07T08:01:38;98274.22;;;4.60;63.96
40982;BME280;26708;50.304;19.028;2023-04-07T08:03:44;98148.84;;;3.94;64.27
40982;BME280;26708;50.304;19.028;2023-04-07T08:05:49;98269.03;;;4.58;64.07
40982;BME280;26708;50.304;19.028;2023-04-07T08:07:58;98271.66;;;4.61;64.26
40982;BME280;26708;50.304;19.028;2023-04-07T08:10:07;98267.44;;;4.66;64.30
40982;BME280;26708;50.304;19.028;2023-04-07T08:12:13;98259.66;;;4.68;64.07
40982;BME280;26708;50.304;19.028;2023-04-07T08:14:20;98257.06;;;4.68;64.22
40982;BME280;26708;50.304;19.028;2023-04-07T08:16:26;98246.66;;;4.65;64.25
40982;BME280;26708;50.304;19.028;2023-04-07T08:18:36;98249.22;;;4.62;64.10
40982;BME280;26708;50.304;19.028;2023-04-07T08:20:41;98258.69;;;4.60;64.21
40982;BME280;26708;50.304;19.028;2023-04-07T08:22:47;98222.84;;;4.32;64.44
40982;BME280;26708;50.304;19.028;2023-04-07T08:24:54;98268.22;;;4.61;64.77
40982;BME280;26708;50.304;19.028;2023-04-07T08:26:59;98234.13;;;4.35;64.63
40982;BME280;26708;50.304;19.028;2023-04-07T08:29:05;98277.78;;;4.65;64.62
40982;BME280;26708;50.304;19.028;2023-04-07T08:31:14;98281.19;;;4.62;64.39
40982;BME280;26708;50.304;19.028;2023-04-07T08:35:39;98193.97;;;4.09;64.27
40982;BME280;26708;50.304;19.028;2023-04-07T08:37:44;98272.59;;;4.65;64.41
40982;BME280;26708;50.304;19.028;2023-04-07T08:39:53;98206.44;;;4.33;64.75
40982;BME280;26708;50.304;19.028;2023-04-07T08:42:00;98267.50;;;4.71;64.26
40982;BME280;26708;50.304;19.028;2023-04-07T08:44:06;98149.88;;;4.05;64.17
40982;BME280;26708;50.304;19.028;2023-04-07T08:46:12;98223.00;;;4.44;64.78
40982;BME280;26708;50.304;19.028;2023-04-07T08:48:22;98204.88;;;4.42;64.81
40982;BME280;26708;50.304;19.028;2023-04-07T08:50:30;98261.53;;;4.76;64.60
40982;BME280;26708;50.304;19.028;2023-04-07T08:52:43;98207.56;;;4.50;64.25
40982;BME280;26708;50.304;19.028;2023-04-07T08:54:50;98265.22;;;4.89;64.09
40982;BME280;26708;50.304;19.028;2023-04-07T08:56:58;98268.72;;;4.92;64.34
40982;BME280;26708;50.304;19.028;2023-04-07T08:59:05;98272.19;;;4.94;64.04
40982;BME280;26708;50.304;19.028;2023-04-07T09:01:12;98267.09;;;4.97;64.05
40982;BME280;26708;50.304;19.028;2023-04-07T09:03:20;98255.72;;;4.91;64.17
40982;BME280;26708;50.304;19.028;2023-04-07T09:05:26;98214.78;;;4.70;63.75
40982;BME280;26708;50.304;19.028;2023-04-07T09:07:34;98272.34;;;5.03;63.49
40982;BME280;26708;50.304;19.028;2023-04-07T09:09:40;98278.41;;;5.04;63.54
40982;BME280;26708;50.304;19.028;2023-04-07T09:11:47;98249.72;;;4.93;63.39
40982;BME280;26708;50.304;19.028;2023-04-07T09:13:56;98265.38;;;4.99;63.48
40982;BME280;26708;50.304;19.028;2023-04-07T09:16:02;98257.56;;;4.98;63.76
40982;BME280;26708;50.304;19.028;2023-04-07T09:18:07;98235.91;;;4.93;64.13
40982;BME280;26708;50.304;19.028;2023-04-07T09:20:12;98230.66;;;4.90;63.69
40982;BME280;26708;50.304;19.028;2023-04-07T09:22:33;98255.06;;;5.04;64.15
40982;BME280;26708;50.304;19.028;2023-04-07T09:24:40;98247.31;;;5.05;63.77
40982;BME280;26708;50.304;19.028;2023-04-07T09:26:46;98246.41;;;5.02;63.58
40982;BME280;26708;50.304;19.028;2023-04-07T09:28:52;98255.81;;;4.95;63.91
40982;BME280;26708;50.304;19.028;2023-04-07T09:31:00;98193.06;;;4.62;64.01
40982;BME280;26708;50.304;19.028;2023-04-07T09:33:06;98211.44;;;4.77;63.93
40982;BME280;26708;50.304;19.028;2023-04-07T09:35:12;98246.34;;;4.97;63.71
40982;BME280;26708;50.304;19.028;2023-04-07T09:37:21;98246.34;;;4.99;64.06
40982;BME280;26708;50.304;19.028;2023-04-07T09:39:27;98257.56;;;4.98;63.87
40982;BME280;26708;50.304;19.028;2023-04-07T09:41:32;98258.41;;;4.97;63.94
40982;BME280;26708;50.304;19.028;2023-04-07T09:43:39;98245.47;;;4.95;63.95
40982;BME280;26708;50.304;19.028;2023-04-07T09:45:48;98254.94;;;4.95;63.87
40982;BME280;26708;50.304;19.028;2023-04-07T09:47:53;98241.81;;;4.86;63.96
40982;BME280;26708;50.304;19.028;2023-04-07T09:49:58;98235.59;;;4.75;64.64
40982;BME280;26708;50.304;19.028;2023-04-07T09:52:07;98190.31;;;4.52;65.08
40982;BME280;26708;50.304;19.028;2023-04-07T09:54:13;98242.59;;;4.80;64.78
40982;BME280;26708;50.304;19.028;2023-04-07T09:56:35;98242.75;;;4.89;65.13
40982;BME280;26708;50.304;19.028;2023-04-07T09:58:43;98244.53;;;4.93;65.29
40982;BME280;26708;50.304;19.028;2023-04-07T10:00:51;98239.38;;;4.95;65.25
40982;BME280;26708;50.304;19.028;2023-04-07T10:02:56;98198.41;;;4.73;65.53
40982;BME280;26708;50.304;19.028;2023-04-07T10:05:03;98244.59;;;4.98;65.32
40982;BME280;26708;50.304;19.028;2023-04-07T10:07:09;98223.66;;;4.86;65.23
40982;BME280;26708;50.304;19.028;2023-04-07T10:09:15;98248.09;;;5.00;65.41
40982;BME280;26708;50.304;19.028;2023-04-07T10:11:21;98239.47;;;5.01;65.33
40982;BME280;26708;50.304;19.028;2023-04-07T10:13:26;98256.81;;;5.03;65.14
40982;BME280;26708;50.304;19.028;2023-04-07T10:15:32;98255.06;;;5.04;64.94
40982;BME280;26708;50.304;19.028;2023-04-07T10:17:43;98208.91;;;4.80;65.00
40982;BME280;26708;50.304;19.028;2023-04-07T10:19:50;98252.53;;;5.07;65.06
40982;BME280;26708;50.304;19.028;2023-04-07T10:21:57;98244.69;;;5.04;64.87
40982;BME280;26708;50.304;19.028;2023-04-07T10:24:18;98156.75;;;4.56;64.96
40982;BME280;26708;50.304;19.028;2023-04-07T10:26:40;98249.09;;;5.08;65.34
40982;BME280;26708;50.304;19.028;2023-04-07T10:28:51;98174.25;;;4.72;65.21
40982;BME280;26708;50.304;19.028;2023-04-07T10:31:04;98246.59;;;5.17;65.00
40982;BME280;26708;50.304;19.028;2023-04-07T10:33:12;98242.34;;;5.22;65.16
40982;BME280;26708;50.304;19.028;2023-04-07T10:35:19;98190.06;;;4.90;65.29
40982;BME280;26708;50.304;19.028;2023-04-07T10:37:25;98240.59;;;5.21;64.82
40982;BME280;26708;50.304;19.028;2023-04-07T10:39:29;98228.38;;;5.11;64.76
40982;BME280;26708;50.304;19.028;2023-04-07T10:41:37;98258.88;;;5.31;64.90
40982;BME280;26708;50.304;19.028;2023-04-07T10:43:43;98259.78;;;5.32;64.92
40982;BME280;26708;50.304;19.028;2023-04-07T10:45:52;98255.44;;;5.31;64.69
40982;BME280;26708;50.304;19.028;2023-04-07T10:48:12;98254.59;;;5.32;64.90
40982;BME280;26708;50.304;19.028;2023-04-07T10:50:25;98246.81;;;5.32;65.02
40982;BME280;26708;50.304;19.028;2023-04-07T10:52:32;98250.25;;;5.32;64.79
40982;BME280;26708;50.304;19.028;2023-04-07T10:54:37;98240.59;;;5.21;64.94
40982;BME280;26708;50.304;19.028;2023-04-07T10:57:11;98191.84;;;4.94;64.91
40982;BME280;26708;50.304;19.028;2023-04-07T10:59:17;98191.81;;;4.91;65.22
40982;BME280;26708;50.304;19.028;2023-04-07T11:01:27;98250.16;;;5.25;65.33
40982;BME280;26708;50.304;19.028;2023-04-07T11:03:37;98189.25;;;4.93;65.55
40982;BME280;26708;50.304;19.028;2023-04-07T11:05:42;98169.13;;;4.77;65.25
40982;BME280;26708;50.304;19.028;2023-04-07T11:07:52;98252.75;;;5.25;64.96
40982;BME280;26708;50.304;19.028;2023-04-07T11:10:10;98253.63;;;5.25;65.17
40982;BME280;26708;50.304;19.028;2023-04-07T11:12:22;98247.53;;;5.23;65.20
40982;BME280;26708;50.304;19.028;2023-04-07T11:14:27;98196.13;;;4.92;65.66
40982;BME280;26708;50.304;19.028;2023-04-07T11:16:39;98232.72;;;5.13;65.45
40982;BME280;26708;50.304;19.028;2023-04-07T11:18:48;98220.66;;;5.17;65.67
40982;BME280;26708;50.304;19.028;2023-04-07T11:20:54;98222.50;;;5.25;65.40
40982;BME280;26708;50.304;19.028;2023-04-07T11:23:01;98233.00;;;5.36;65.59
40982;BME280;26708;50.304;19.028;2023-04-07T11:25:19;98229.53;;;5.34;65.70